createdAt,value
2018-10-12T00:00:42.846Z,76.42
2018-10-12T00:01:42.856Z,76.42
2018-10-12T00:02:42.869Z,76.42
2018-10-12T00:03:42.888Z,76.33
2018-10-12T00:04:42.900Z,75.95
2018-10-12T00:05:42.919Z,75.57
2018-10-12T00:06:42.930Z,76.04
2018-10-12T00:07:42.946Z,76.23
2018-10-12T00:08:42.960Z,75.67
2018-10-12T00:09:42.972Z,75.47
2018-10-12T00:10:42.987Z,75.47
2018-10-12T00:11:43.012Z,75.76
2018-10-12T00:12:43.018Z,75.67
2018-10-12T00:13:43.035Z,75.95
2018-10-12T00:14:43.046Z,75.85
2018-10-12T00:15:43.061Z,75.95
2018-10-12T00:16:43.078Z,76.71
2018-10-12T00:17:43.090Z,76.90
2018-10-12T00:18:43.106Z,76.71
2018-10-12T00:19:43.126Z,77.09
2018-10-12T00:20:43.139Z,77.09
2018-10-12T00:21:43.149Z,77.09
2018-10-12T00:22:43.164Z,77.47
2018-10-12T00:23:43.179Z,77.09
2018-10-12T00:24:43.194Z,77.66
2018-10-12T00:25:43.208Z,77.37
2018-10-12T00:26:43.221Z,77.19
2018-10-12T00:27:43.237Z,77.19
2018-10-12T00:28:43.252Z,77.37
2018-10-12T00:29:43.266Z,77.47
2018-10-12T00:30:43.281Z,77.00
2018-10-12T00:31:43.296Z,76.81
2018-10-12T00:32:43.310Z,76.23
2018-10-12T00:33:43.326Z,76.33
2018-10-12T00:34:43.340Z,76.33
2018-10-12T00:35:43.354Z,75.76
2018-10-12T00:36:43.369Z,75.85
2018-10-12T00:37:43.384Z,75.38
2018-10-12T00:38:43.398Z,75.09
2018-10-12T00:39:43.414Z,74.90
2018-10-12T00:40:43.427Z,74.62
2018-10-12T00:41:43.445Z,74.84
2018-10-12T00:42:43.454Z,74.37
2018-10-12T00:43:43.472Z,74.18
2018-10-12T00:44:43.485Z,74.43
2018-10-12T00:45:43.502Z,74.94
2018-10-12T00:46:43.515Z,75.09
2018-10-12T00:47:43.530Z,75.28
2018-10-12T00:48:43.546Z,75.38
2018-10-12T00:49:43.580Z,75.85
2018-10-12T00:50:43.574Z,75.95
2018-10-12T00:51:43.588Z,75.67
2018-10-12T00:52:43.601Z,75.67
2018-10-12T00:53:43.617Z,75.95
2018-10-12T00:54:43.630Z,76.04
2018-10-12T00:55:43.644Z,75.85
2018-10-12T00:56:43.658Z,75.67
2018-10-12T00:57:43.674Z,75.19
2018-10-12T00:58:43.687Z,75.76
2018-10-12T00:59:43.701Z,75.67
2018-10-12T01:00:43.720Z,75.67
2018-10-12T01:01:43.733Z,75.95
2018-10-12T01:02:43.749Z,76.33
2018-10-12T01:03:43.759Z,75.85
2018-10-12T01:04:43.774Z,75.47
2018-10-12T01:05:43.790Z,75.09
2018-10-12T01:06:43.892Z,74.71
2018-10-12T01:07:43.818Z,74.71
2018-10-12T01:08:43.830Z,74.52
2018-10-12T01:09:43.846Z,74.43
2018-10-12T01:10:43.861Z,74.24
2018-10-12T01:11:43.875Z,73.76
2018-10-12T01:12:43.889Z,73.95
2018-10-12T01:13:43.903Z,74.24
2018-10-12T01:14:43.919Z,74.43
2018-10-12T01:15:43.932Z,74.80
2018-10-12T01:16:43.945Z,74.71
2018-10-12T01:17:43.960Z,74.71
2018-10-12T01:18:43.972Z,74.52
2018-10-12T01:19:43.988Z,73.85
2018-10-12T01:20:44.001Z,74.43
2018-10-12T01:21:44.017Z,74.14
2018-10-12T01:22:44.029Z,74.04
2018-10-12T01:23:44.043Z,74.33
2018-10-12T01:24:44.060Z,73.47
2018-10-12T01:25:44.072Z,74.33
2018-10-12T01:26:44.085Z,73.85
2018-10-12T01:27:44.102Z,74.52
2018-10-12T01:28:44.114Z,74.24
2018-10-12T01:29:44.128Z,74.80
2018-10-12T01:30:44.143Z,74.71
2018-10-12T01:31:44.158Z,74.80
2018-10-12T01:32:44.171Z,74.80
2018-10-12T01:33:44.188Z,74.99
2018-10-12T01:34:44.204Z,75.09
2018-10-12T01:35:44.214Z,75.19
2018-10-12T01:36:44.228Z,75.19
2018-10-12T01:37:44.248Z,75.09
2018-10-12T01:38:44.261Z,75.09
2018-10-12T01:39:44.270Z,74.80
2018-10-12T01:40:44.287Z,74.80
2018-10-12T01:41:44.301Z,74.52
2018-10-12T01:42:44.313Z,74.80
2018-10-12T01:43:44.335Z,74.99
2018-10-12T01:44:44.342Z,75.09
2018-10-12T01:45:44.358Z,75.09
2018-10-12T01:46:44.372Z,74.62
2018-10-12T01:47:44.384Z,74.80
2018-10-12T01:48:44.399Z,74.80
2018-10-12T01:49:44.414Z,75.47
2018-10-12T01:50:44.431Z,75.67
2018-10-12T01:51:44.442Z,75.57
2018-10-12T01:52:44.456Z,75.76
2018-10-12T01:53:44.474Z,75.57
2018-10-12T01:54:44.486Z,75.57
2018-10-12T01:55:44.502Z,75.47
2018-10-12T01:56:44.518Z,75.67
2018-10-12T01:57:44.529Z,75.67
2018-10-12T01:58:44.543Z,75.57
2018-10-12T01:59:44.557Z,74.90
2018-10-12T02:00:44.572Z,75.47
2018-10-12T02:01:44.591Z,75.28
2018-10-12T02:02:44.600Z,75.38
2018-10-12T02:03:44.614Z,75.19
2018-10-12T02:04:44.632Z,74.80
2018-10-12T02:05:44.646Z,75.09
2018-10-12T02:06:44.657Z,74.90
2018-10-12T02:07:44.672Z,74.99
2018-10-12T02:08:44.687Z,75.19
2018-10-12T02:09:44.706Z,74.99
2018-10-12T02:10:44.715Z,74.90
2018-10-12T02:11:44.735Z,74.90
2018-10-12T02:12:44.746Z,74.62
2018-10-12T02:13:44.761Z,74.71
2018-10-12T02:14:44.772Z,74.90
2018-10-12T02:15:44.793Z,74.90
2018-10-12T02:16:44.805Z,75.38
2018-10-12T02:17:44.823Z,75.57
2018-10-12T02:18:44.832Z,75.34
2018-10-12T02:19:44.845Z,75.72
2018-10-12T02:20:44.864Z,75.34
2018-10-12T02:21:44.876Z,75.76
2018-10-12T02:22:44.888Z,75.81
2018-10-12T02:23:44.903Z,75.62
2018-10-12T02:24:44.918Z,75.72
2018-10-12T02:25:44.932Z,75.81
2018-10-12T02:26:44.947Z,75.81
2018-10-12T02:27:44.962Z,75.81
2018-10-12T02:28:44.981Z,75.91
2018-10-12T02:29:44.990Z,76.01
2018-10-12T02:30:45.007Z,75.72
2018-10-12T02:31:45.021Z,76.10
2018-10-12T02:32:45.034Z,76.29
2018-10-12T02:33:45.048Z,76.67
2018-10-12T02:34:45.064Z,76.20
2018-10-12T02:35:45.076Z,76.57
2018-10-12T02:36:45.093Z,76.76
2018-10-12T02:37:45.107Z,77.15
2018-10-12T02:38:45.119Z,77.24
2018-10-12T02:39:45.139Z,77.15
2018-10-12T02:40:45.152Z,76.96
2018-10-12T02:41:45.165Z,76.96
2018-10-12T02:42:45.178Z,77.05
2018-10-12T02:43:45.192Z,77.05
2018-10-12T02:44:45.209Z,77.05
2018-10-12T02:45:45.225Z,77.15
2018-10-12T02:46:45.235Z,77.05
2018-10-12T02:47:45.249Z,76.76
2018-10-12T02:48:45.264Z,76.48
2018-10-12T02:49:45.281Z,77.05
2018-10-12T02:50:45.295Z,76.96
2018-10-12T02:51:45.308Z,77.15
2018-10-12T02:52:45.322Z,77.05
2018-10-12T02:53:45.336Z,76.57
2018-10-12T02:54:45.351Z,77.15
2018-10-12T02:55:45.367Z,77.15
2018-10-12T02:56:45.381Z,77.15
2018-10-12T02:57:45.408Z,77.34
2018-10-12T02:58:45.416Z,77.62
2018-10-12T02:59:45.421Z,77.15
2018-10-12T03:00:45.436Z,77.15
2018-10-12T03:01:45.451Z,77.62
2018-10-12T03:02:45.467Z,76.96
2018-10-12T03:03:45.478Z,77.05
2018-10-12T03:04:45.494Z,77.24
2018-10-12T03:05:45.508Z,77.34
2018-10-12T03:06:45.520Z,76.67
2018-10-12T03:07:45.536Z,76.96
2018-10-12T03:08:45.551Z,77.24
2018-10-12T03:09:45.566Z,77.15
2018-10-12T03:10:45.577Z,77.72
2018-10-12T03:11:45.593Z,78.10
2018-10-12T03:12:45.608Z,78.57
2018-10-12T03:13:45.623Z,78.77
2018-10-12T03:14:45.635Z,78.77
2018-10-12T03:15:45.649Z,78.48
2018-10-12T03:16:45.664Z,79.24
2018-10-12T03:17:45.678Z,79.24
2018-10-12T03:18:45.692Z,79.43
2018-10-12T03:19:45.707Z,79.52
2018-10-12T03:20:45.724Z,79.52
2018-10-12T03:21:45.738Z,78.96
2018-10-12T03:22:45.753Z,79.24
2018-10-12T03:23:45.766Z,79.14
2018-10-12T03:24:45.778Z,78.86
2018-10-12T03:25:45.793Z,79.33
2018-10-12T03:26:45.809Z,78.86
2018-10-12T03:27:45.820Z,78.38
2018-10-12T03:28:45.835Z,78.67
2018-10-12T03:29:45.850Z,78.86
2018-10-12T03:30:45.940Z,78.86
2018-10-12T03:31:45.878Z,78.57
2018-10-12T03:32:45.891Z,79.14
2018-10-12T03:33:45.907Z,79.14
2018-10-12T03:34:45.923Z,78.57
2018-10-12T03:35:45.933Z,78.86
2018-10-12T03:36:45.948Z,78.96
2018-10-12T03:37:45.962Z,79.52
2018-10-12T03:38:45.985Z,79.62
2018-10-12T03:39:45.992Z,79.91
2018-10-12T03:40:46.004Z,80.15
2018-10-12T03:41:46.020Z,80.34
2018-10-12T03:42:46.033Z,80.66
2018-10-12T03:43:46.047Z,81.01
2018-10-12T03:44:46.064Z,81.20
2018-10-12T03:45:46.076Z,81.33
2018-10-12T03:46:46.090Z,81.52
2018-10-12T03:47:46.103Z,81.48
2018-10-12T03:48:46.117Z,81.67
2018-10-12T03:49:46.133Z,81.48
2018-10-12T03:50:46.145Z,81.10
2018-10-12T03:51:46.208Z,80.72
2018-10-12T03:52:46.173Z,81.29
2018-10-12T03:53:46.186Z,81.20
2018-10-12T03:54:46.201Z,81.10
2018-10-12T03:55:46.215Z,82.91
2018-10-12T03:56:46.231Z,82.81
2018-10-12T03:57:46.242Z,82.15
2018-10-12T03:58:46.255Z,82.34
2018-10-12T03:59:46.269Z,82.81
2018-10-12T04:00:46.289Z,83.86
2018-10-12T04:01:46.296Z,84.14
2018-10-12T04:02:46.324Z,83.67
2018-10-12T04:03:46.329Z,84.62
2018-10-12T04:04:46.340Z,85.38
2018-10-12T04:05:46.355Z,85.66
2018-10-12T04:06:46.367Z,86.14
2018-10-12T04:07:46.385Z,85.38
2018-10-12T04:08:46.397Z,85.66
2018-10-12T04:09:46.410Z,85.66
2018-10-12T04:10:46.423Z,85.47
2018-10-12T04:11:46.441Z,85.76
2018-10-12T04:12:46.459Z,85.28
2018-10-12T04:13:46.464Z,85.76
2018-10-12T04:14:46.477Z,85.57
2018-10-12T04:15:46.491Z,84.62
2018-10-12T04:16:46.506Z,83.76
2018-10-12T04:17:46.521Z,84.05
2018-10-12T04:18:46.530Z,83.76
2018-10-12T04:19:46.545Z,84.05
2018-10-12T04:20:46.559Z,83.86
2018-10-12T04:21:46.574Z,84.24
2018-10-12T04:22:46.587Z,83.48
2018-10-12T04:23:46.601Z,83.86
2018-10-12T04:24:46.613Z,83.86
2018-10-12T04:25:46.628Z,83.67
2018-10-12T04:26:46.640Z,83.58
2018-10-12T04:27:46.654Z,83.29
2018-10-12T04:28:46.669Z,83.29
2018-10-12T04:29:46.682Z,83.76
2018-10-12T04:30:46.696Z,83.76
2018-10-12T04:31:46.713Z,83.95
2018-10-12T04:32:46.727Z,83.95
2018-10-12T04:33:46.739Z,83.76
2018-10-12T04:34:46.751Z,83.58
2018-10-12T04:35:46.767Z,83.48
2018-10-12T04:36:46.779Z,83.48
2018-10-12T04:37:46.791Z,83.48
2018-10-12T04:38:46.804Z,83.39
2018-10-12T04:39:46.818Z,83.29
2018-10-12T04:40:46.837Z,83.39
2018-10-12T04:41:46.845Z,83.29
2018-10-12T04:42:46.857Z,83.29
2018-10-12T04:43:46.896Z,83.48
2018-10-12T04:44:46.887Z,83.29
2018-10-12T04:45:46.899Z,83.29
2018-10-12T04:46:46.912Z,83.86
2018-10-12T04:47:46.927Z,84.05
2018-10-12T04:48:46.940Z,83.76
2018-10-12T04:49:46.959Z,84.52
2018-10-12T04:50:46.970Z,84.43
2018-10-12T04:51:46.982Z,84.62
2018-10-12T04:52:46.997Z,84.81
2018-10-12T04:53:47.109Z,84.24
2018-10-12T04:54:47.023Z,84.91
2018-10-12T04:55:47.036Z,84.62
2018-10-12T04:56:47.049Z,84.91
2018-10-12T04:57:47.064Z,84.43
2018-10-12T04:58:47.078Z,84.24
2018-10-12T04:59:47.091Z,83.48
2018-10-12T05:00:47.175Z,82.91
2018-10-12T05:01:47.122Z,82.43
2018-10-12T05:02:47.132Z,82.43
2018-10-12T05:03:47.147Z,82.81
2018-10-12T05:04:47.160Z,83.19
2018-10-12T05:05:47.173Z,83.19
2018-10-12T05:06:47.187Z,83.48
2018-10-12T05:07:47.236Z,83.10
2018-10-12T05:08:47.213Z,82.81
2018-10-12T05:09:47.227Z,82.71
2018-10-12T05:10:47.242Z,82.15
2018-10-12T05:11:47.254Z,81.96
2018-10-12T05:12:47.273Z,81.58
2018-10-12T05:13:47.282Z,81.48
2018-10-12T05:14:47.296Z,81.48
2018-10-12T05:15:47.309Z,81.29
2018-10-12T05:16:47.321Z,80.72
2018-10-12T05:17:47.336Z,80.63
2018-10-12T05:18:47.348Z,80.24
2018-10-12T05:19:47.362Z,80.24
2018-10-12T05:20:47.382Z,80.15
2018-10-12T05:21:47.390Z,80.05
2018-10-12T05:22:47.403Z,80.44
2018-10-12T05:23:47.417Z,80.24
2018-10-12T05:24:47.432Z,80.53
2018-10-12T05:25:47.445Z,80.82
2018-10-12T05:26:47.460Z,81.29
2018-10-12T05:27:47.476Z,81.29
2018-10-12T05:28:47.504Z,81.48
2018-10-12T05:29:47.501Z,81.48
2018-10-12T05:30:47.512Z,81.38
2018-10-12T05:31:47.527Z,81.67
2018-10-12T05:32:47.543Z,81.48
2018-10-12T05:33:47.554Z,82.15
2018-10-12T05:34:47.567Z,81.48
2018-10-12T05:35:47.584Z,81.77
2018-10-12T05:36:47.595Z,82.34
2018-10-12T05:37:47.608Z,82.71
2018-10-12T05:38:47.624Z,83.39
2018-10-12T05:39:47.636Z,83.86
2018-10-12T05:40:47.648Z,83.95
2018-10-12T05:41:47.662Z,83.95
2018-10-12T05:42:47.747Z,84.33
2018-10-12T05:43:47.795Z,84.72
2018-10-12T05:44:47.706Z,85.19
2018-10-12T05:45:47.728Z,85.00
2018-10-12T05:46:47.732Z,85.00
2018-10-12T05:47:47.744Z,84.91
2018-10-12T05:48:47.827Z,84.72
2018-10-12T05:49:47.776Z,83.76
2018-10-12T05:50:47.786Z,83.76
2018-10-12T05:51:47.804Z,83.76
2018-10-12T05:52:47.813Z,84.14
2018-10-12T05:53:47.826Z,83.58
2018-10-12T05:54:47.841Z,84.24
2018-10-12T05:55:47.908Z,83.19
2018-10-12T05:56:47.867Z,83.29
2018-10-12T05:57:47.881Z,83.10
2018-10-12T05:58:47.894Z,83.67
2018-10-12T05:59:47.908Z,83.19
2018-10-12T06:00:47.922Z,83.29
2018-10-12T06:01:47.937Z,83.00
2018-10-12T06:02:47.949Z,82.71
2018-10-12T06:03:47.964Z,82.81
2018-10-12T06:04:47.978Z,83.58
2018-10-12T06:05:47.991Z,83.76
2018-10-12T06:06:48.004Z,83.95
2018-10-12T06:07:48.016Z,83.76
2018-10-12T06:08:48.036Z,83.86
2018-10-12T06:09:48.249Z,84.52
2018-10-12T06:10:48.059Z,84.14
2018-10-12T06:11:48.073Z,84.62
2018-10-12T06:12:48.158Z,84.91
2018-10-12T06:13:48.100Z,84.81
2018-10-12T06:14:48.113Z,85.38
2018-10-12T06:15:48.193Z,85.28
2018-10-12T06:16:48.141Z,85.57
2018-10-12T06:17:48.155Z,85.47
2018-10-12T06:18:48.169Z,85.86
2018-10-12T06:19:48.181Z,85.38
2018-10-12T06:20:48.195Z,86.05
2018-10-12T06:21:48.211Z,85.86
2018-10-12T06:22:48.223Z,85.86
2018-10-12T06:23:48.239Z,85.38
2018-10-12T06:24:48.252Z,85.19
2018-10-12T06:25:48.269Z,85.47
2018-10-12T06:26:48.376Z,85.47
2018-10-12T06:27:48.293Z,86.24
2018-10-12T06:28:48.306Z,85.95
2018-10-12T06:29:48.322Z,84.81
2018-10-12T06:30:48.343Z,84.14
2018-10-12T06:31:48.348Z,83.10
2018-10-12T06:32:48.413Z,82.71
2018-10-12T06:33:48.377Z,82.62
2018-10-12T06:34:48.389Z,82.24
2018-10-12T06:35:48.401Z,81.20
2018-10-12T06:36:48.417Z,80.95
2018-10-12T06:37:48.434Z,80.19
2018-10-12T06:38:48.442Z,80.19
2018-10-12T06:39:48.455Z,79.81
2018-10-12T06:40:48.527Z,79.81
2018-10-12T06:41:48.649Z,79.72
2018-10-12T06:42:48.497Z,79.91
2018-10-12T06:43:48.511Z,79.91
2018-10-12T06:44:48.526Z,80.38
2018-10-12T06:45:48.539Z,80.19
2018-10-12T06:46:48.690Z,80.19
2018-10-12T06:47:48.567Z,80.47
2018-10-12T06:48:48.580Z,80.76
2018-10-12T06:49:48.594Z,80.66
2018-10-12T06:50:48.607Z,80.00
2018-10-12T06:51:48.621Z,79.91
2018-10-12T06:52:48.635Z,79.91
2018-10-12T06:53:48.702Z,80.00
2018-10-12T06:54:48.664Z,79.52
2018-10-12T06:55:48.677Z,79.24
2018-10-12T06:56:48.691Z,79.24
2018-10-12T06:57:48.705Z,79.43
2018-10-12T06:58:48.719Z,79.43
2018-10-12T06:59:48.760Z,79.81
2018-10-12T07:00:48.747Z,78.67
2018-10-12T07:01:48.761Z,78.67
2018-10-12T07:02:48.773Z,78.57
2018-10-12T07:03:48.788Z,78.38
2018-10-12T07:04:48.807Z,78.57
2018-10-12T07:05:48.934Z,78.86
2018-10-12T07:06:48.833Z,78.77
2018-10-12T07:07:48.843Z,78.29
2018-10-12T07:08:48.859Z,78.67
2018-10-12T07:09:48.872Z,77.81
2018-10-12T07:10:48.885Z,77.72
2018-10-12T07:11:48.900Z,76.86
2018-10-12T07:12:48.914Z,76.48
2018-10-12T07:13:48.958Z,76.39
2018-10-12T07:14:48.944Z,76.48
2018-10-12T07:15:48.957Z,76.39
2018-10-12T07:16:49.305Z,76.20
2018-10-12T07:17:48.985Z,75.81
2018-10-12T07:18:48.999Z,75.62
2018-10-12T07:19:49.011Z,76.01
2018-10-12T07:20:49.026Z,75.91
2018-10-12T07:21:49.041Z,75.81
2018-10-12T07:22:49.053Z,76.01
2018-10-12T07:23:49.068Z,76.20
2018-10-12T07:24:49.085Z,75.57
2018-10-12T07:25:49.109Z,75.57
2018-10-12T07:26:49.112Z,75.67
2018-10-12T07:27:49.126Z,75.95
2018-10-12T07:28:49.140Z,76.33
2018-10-12T07:29:49.155Z,76.42
2018-10-12T07:30:49.168Z,76.56
2018-10-12T07:31:49.183Z,77.42
2018-10-12T07:32:49.198Z,75.79
2018-10-12T07:33:49.214Z,74.56
2018-10-12T07:34:49.227Z,73.74
2018-10-12T07:35:49.240Z,72.02
2018-10-12T07:36:49.255Z,72.50
2018-10-12T07:37:49.273Z,70.97
2018-10-12T07:38:49.287Z,71.93
2018-10-12T07:39:49.301Z,71.01
2018-10-12T07:40:49.316Z,70.92
2018-10-12T07:41:49.328Z,70.25
2018-10-12T07:42:49.342Z,69.20
2018-10-12T07:43:49.357Z,68.38
2018-10-12T07:44:49.370Z,67.90
2018-10-12T07:45:49.386Z,67.99
2018-10-12T07:46:49.398Z,68.76
2018-10-12T07:47:49.414Z,69.23
2018-10-12T07:48:49.429Z,67.71
2018-10-12T07:49:49.445Z,67.83
2018-10-12T07:50:49.461Z,66.47
2018-10-12T07:51:49.479Z,67.04
2018-10-12T07:52:49.488Z,67.14
2018-10-12T07:53:49.502Z,67.80
2018-10-12T07:54:49.518Z,67.90
2018-10-12T07:55:49.531Z,67.74
2018-10-12T07:56:49.546Z,67.65
2018-10-12T07:57:49.563Z,67.74
2018-10-12T07:58:49.578Z,66.41
2018-10-12T07:59:49.592Z,65.36
2018-10-12T08:00:49.812Z,65.64
2018-10-12T08:01:49.624Z,65.74
2018-10-12T08:02:49.636Z,65.74
2018-10-12T08:03:49.652Z,64.21
2018-10-12T08:04:49.673Z,64.65
2018-10-12T08:05:49.682Z,65.42
2018-10-12T08:06:49.786Z,64.56
2018-10-12T08:07:49.711Z,64.94
2018-10-12T08:08:49.729Z,64.75
2018-10-12T08:09:49.744Z,66.78
2018-10-12T08:10:49.756Z,65.67
2018-10-12T08:11:49.774Z,62.05
2018-10-12T08:12:49.789Z,61.57
2018-10-12T08:13:49.901Z,61.92
2018-10-12T08:14:49.817Z,63.83
2018-10-12T08:15:49.832Z,63.29
2018-10-12T08:16:49.848Z,62.59
2018-10-12T08:17:49.862Z,63.07
2018-10-12T08:18:49.879Z,62.78
2018-10-12T08:19:49.894Z,63.26
2018-10-12T08:20:49.917Z,62.68
2018-10-12T08:21:49.925Z,62.62
2018-10-12T08:22:49.940Z,61.38
2018-10-12T08:23:49.953Z,61.38
2018-10-12T08:24:49.974Z,62.34
2018-10-12T08:25:49.986Z,63.67
2018-10-12T08:26:50.052Z,63.03
2018-10-12T08:27:50.016Z,63.42
2018-10-12T08:28:50.034Z,60.74
2018-10-12T08:29:50.047Z,60.64
2018-10-12T08:30:50.062Z,60.49
2018-10-12T08:31:50.078Z,58.95
2018-10-12T08:32:50.097Z,59.53
2018-10-12T08:33:50.112Z,59.08
2018-10-12T08:34:50.126Z,58.32
2018-10-12T08:35:50.141Z,57.55
2018-10-12T08:36:50.157Z,57.84
2018-10-12T08:37:50.174Z,57.75
2018-10-12T08:38:50.189Z,55.64
2018-10-12T08:39:50.204Z,56.12
2018-10-12T08:40:50.220Z,56.98
2018-10-12T08:41:50.276Z,56.38
2018-10-12T08:42:50.251Z,57.90
2018-10-12T08:43:50.269Z,57.90
2018-10-12T08:44:50.283Z,58.95
2018-10-12T08:45:50.301Z,59.24
2018-10-12T08:46:50.317Z,58.48
2018-10-12T08:47:50.333Z,58.58
2018-10-12T08:48:50.350Z,58.58
2018-10-12T08:49:50.364Z,59.34
2018-10-12T08:50:50.380Z,58.19
2018-10-12T08:51:50.396Z,57.90
2018-10-12T08:52:50.413Z,59.24
2018-10-12T08:53:50.433Z,58.41
2018-10-12T08:54:50.445Z,57.17
2018-10-12T08:55:50.462Z,55.74
2018-10-12T08:56:50.479Z,56.69
2018-10-12T08:57:50.495Z,56.31
2018-10-12T08:58:50.510Z,56.50
2018-10-12T08:59:50.526Z,56.50
2018-10-12T09:00:50.544Z,55.26
2018-10-12T09:01:50.560Z,55.35
2018-10-12T09:02:50.638Z,56.31
2018-10-12T09:03:50.594Z,55.64
2018-10-12T09:04:50.610Z,54.39
2018-10-12T09:05:50.630Z,55.71
2018-10-12T09:06:50.642Z,56.88
2018-10-12T09:07:50.660Z,56.40
2018-10-12T09:08:50.676Z,55.07
2018-10-12T09:09:50.753Z,55.16
2018-10-12T09:10:50.708Z,55.71
2018-10-12T09:11:50.726Z,56.69
2018-10-12T09:12:50.744Z,55.57
2018-10-12T09:13:50.760Z,53.63
2018-10-12T09:14:50.779Z,54.49
2018-10-12T09:15:50.793Z,54.59
2018-10-12T09:16:50.811Z,55.00
2018-10-12T09:17:50.828Z,53.85
2018-10-12T09:18:50.843Z,53.85
2018-10-12T09:19:50.860Z,53.75
2018-10-12T09:20:51.033Z,53.75
2018-10-12T09:21:50.963Z,53.49
2018-10-12T09:22:50.910Z,53.69
2018-10-12T09:23:50.928Z,52.99
2018-10-12T09:24:50.944Z,53.44
2018-10-12T09:25:50.961Z,54.39
2018-10-12T09:26:50.977Z,55.04
2018-10-12T09:27:50.995Z,55.54
2018-10-12T09:28:51.015Z,55.16
2018-10-12T09:29:51.030Z,54.59
2018-10-12T09:30:51.046Z,54.23
2018-10-12T09:31:51.065Z,52.63
2018-10-12T09:32:51.083Z,52.34
2018-10-12T09:33:51.100Z,53.02
2018-10-12T09:34:51.117Z,52.15
2018-10-12T09:35:51.134Z,52.22
2018-10-12T09:36:51.217Z,53.66
2018-10-12T09:37:51.171Z,53.66
2018-10-12T09:38:51.186Z,52.51
2018-10-12T09:39:51.206Z,52.63
2018-10-12T09:40:51.220Z,52.32
2018-10-12T09:41:51.243Z,52.34
2018-10-12T09:42:51.263Z,51.68
2018-10-12T09:43:51.274Z,51.20
2018-10-12T09:44:51.292Z,49.88
2018-10-12T09:45:51.311Z,50.31
2018-10-12T09:46:51.329Z,52.61
2018-10-12T09:47:51.347Z,51.84
2018-10-12T09:48:51.365Z,51.10
2018-10-12T09:49:51.384Z,50.72
2018-10-12T09:50:51.400Z,51.29
2018-10-12T09:51:51.418Z,51.22
2018-10-12T09:52:51.438Z,49.79
2018-10-12T09:53:51.464Z,48.54
2018-10-12T09:54:51.472Z,48.04
2018-10-12T09:55:51.561Z,48.54
2018-10-12T09:56:51.509Z,47.11
2018-10-12T09:57:51.527Z,47.61
2018-10-12T09:58:51.544Z,47.06
2018-10-12T09:59:51.562Z,46.39
2018-10-12T10:00:51.583Z,46.86
2018-10-12T10:01:51.656Z,46.75
2018-10-12T10:02:51.618Z,47.32
2018-10-12T10:03:51.638Z,49.43
2018-10-12T10:04:51.660Z,48.85
2018-10-12T10:05:51.676Z,48.38
2018-10-12T10:06:51.694Z,48.57
2018-10-12T10:07:51.856Z,48.21
2018-10-12T10:08:51.736Z,47.71
2018-10-12T10:09:51.750Z,47.71
2018-10-12T10:10:51.767Z,47.80
2018-10-12T10:11:51.787Z,48.21
2018-10-12T10:12:51.806Z,47.66
2018-10-12T10:13:51.846Z,47.15
2018-10-12T10:14:51.842Z,46.46
2018-10-12T10:15:51.864Z,47.89
2018-10-12T10:16:51.880Z,48.02
2018-10-12T10:17:51.902Z,47.56
2018-10-12T10:18:51.919Z,46.86
2018-10-12T10:19:51.940Z,47.15
2018-10-12T10:20:51.961Z,47.15
2018-10-12T10:21:51.975Z,47.53
2018-10-12T10:22:51.995Z,47.63
2018-10-12T10:23:52.015Z,47.34
2018-10-12T10:24:52.095Z,47.73
2018-10-12T10:25:52.054Z,47.99
2018-10-12T10:26:52.071Z,48.66
2018-10-12T10:27:52.094Z,48.95
2018-10-12T10:28:52.110Z,48.57
2018-10-12T10:29:52.131Z,49.24
2018-10-12T10:30:52.148Z,47.89
2018-10-12T10:31:52.169Z,48.09
2018-10-12T10:32:52.188Z,48.09
2018-10-12T10:33:52.208Z,48.38
2018-10-12T10:34:52.226Z,47.80
2018-10-12T10:35:52.246Z,47.73
2018-10-12T10:36:52.269Z,47.42
2018-10-12T10:37:52.288Z,47.39
2018-10-12T10:38:52.342Z,47.03
2018-10-12T10:39:52.325Z,47.34
2018-10-12T10:40:52.344Z,45.72
2018-10-12T10:41:52.364Z,46.22
2018-10-12T10:42:52.381Z,45.57
2018-10-12T10:43:52.401Z,44.70
2018-10-12T10:44:52.424Z,45.11
2018-10-12T10:45:52.441Z,45.28
2018-10-12T10:46:52.459Z,45.28
2018-10-12T10:47:52.481Z,45.74
2018-10-12T10:48:52.499Z,46.14
2018-10-12T10:49:52.519Z,46.14
2018-10-12T10:50:52.539Z,45.76
2018-10-12T10:51:52.559Z,44.90
2018-10-12T10:52:52.579Z,44.87
2018-10-12T10:53:52.600Z,44.97
2018-10-12T10:54:52.619Z,46.14
2018-10-12T10:55:52.638Z,44.87
2018-10-12T10:56:52.661Z,45.45
2018-10-12T10:57:52.678Z,46.03
2018-10-12T10:58:52.698Z,46.81
2018-10-12T10:59:52.719Z,45.45
2018-10-12T11:00:52.814Z,47.10
2018-10-12T11:01:52.758Z,45.93
2018-10-12T11:02:52.779Z,46.89
2018-10-12T11:03:52.797Z,46.41
2018-10-12T11:04:52.817Z,47.08
2018-10-12T11:05:52.837Z,46.70
2018-10-12T11:06:52.858Z,47.46
2018-10-12T11:07:52.880Z,47.27
2018-10-12T11:08:52.897Z,46.91
2018-10-12T11:09:52.918Z,46.34
2018-10-12T11:10:52.938Z,45.76
2018-10-12T11:11:52.958Z,44.90
2018-10-12T11:12:53.148Z,45.86
2018-10-12T11:13:52.998Z,45.00
2018-10-12T11:14:53.018Z,45.67
2018-10-12T11:15:53.039Z,45.09
2018-10-12T11:16:53.059Z,45.57
2018-10-12T11:17:53.080Z,45.45
2018-10-12T11:18:53.100Z,46.72
2018-10-12T11:19:53.123Z,46.77
2018-10-12T11:20:53.141Z,47.30
2018-10-12T11:21:53.161Z,46.91
2018-10-12T11:22:53.180Z,46.70
2018-10-12T11:23:53.204Z,47.08
2018-10-12T11:24:53.221Z,46.24
2018-10-12T11:25:53.241Z,45.86
2018-10-12T11:26:53.365Z,46.58
2018-10-12T11:27:53.283Z,47.25
2018-10-12T11:28:53.301Z,47.37
2018-10-12T11:29:53.322Z,47.58
2018-10-12T11:30:53.348Z,46.72
2018-10-12T11:31:53.364Z,45.67
2018-10-12T11:32:53.410Z,45.67
2018-10-12T11:33:53.405Z,45.68
2018-10-12T11:34:53.424Z,44.42
2018-10-12T11:35:53.450Z,45.01
2018-10-12T11:36:53.466Z,43.77
2018-10-12T11:37:53.489Z,44.13
2018-10-12T11:38:53.506Z,45.26
2018-10-12T11:39:53.533Z,45.16
2018-10-12T11:40:53.547Z,45.83
2018-10-12T11:41:53.567Z,46.12
2018-10-12T11:42:53.588Z,45.95
2018-10-12T11:43:53.610Z,45.78
2018-10-12T11:44:53.634Z,44.54
2018-10-12T11:45:53.653Z,44.06
2018-10-12T11:46:53.672Z,43.96
2018-10-12T11:47:53.694Z,43.48
2018-10-12T11:48:53.712Z,43.60
2018-10-12T11:49:53.736Z,42.71
2018-10-12T11:50:53.753Z,43.38
2018-10-12T11:51:53.773Z,43.48
2018-10-12T11:52:53.795Z,44.42
2018-10-12T11:53:53.816Z,44.40
2018-10-12T11:54:53.837Z,44.90
2018-10-12T11:55:53.858Z,44.24
2018-10-12T11:56:53.880Z,43.48
2018-10-12T11:57:53.901Z,43.48
2018-10-12T11:58:53.922Z,43.38
2018-10-12T11:59:53.944Z,43.50
2018-10-12T12:00:54.057Z,42.56
2018-10-12T12:01:53.984Z,41.43
2018-10-12T12:02:54.005Z,40.01
2018-10-12T12:03:54.024Z,41.02
2018-10-12T12:04:54.045Z,41.29
2018-10-12T12:05:54.068Z,42.27
2018-10-12T12:06:54.089Z,41.99
2018-10-12T12:07:54.110Z,42.18
2018-10-12T12:08:54.132Z,41.43
2018-10-12T12:09:54.154Z,40.88
2018-10-12T12:10:54.174Z,41.63
2018-10-12T12:11:54.195Z,44.23
2018-10-12T12:12:54.218Z,44.90
2018-10-12T12:13:54.368Z,44.92
2018-10-12T12:14:54.258Z,43.71
2018-10-12T12:15:54.280Z,42.49
2018-10-12T12:16:54.302Z,40.20
2018-10-12T12:17:54.324Z,39.33
2018-10-12T12:18:54.344Z,39.43
2018-10-12T12:19:54.367Z,39.62
2018-10-12T12:20:54.388Z,39.24
2018-10-12T12:21:54.411Z,39.43
2018-10-12T12:22:54.433Z,38.78
2018-10-12T12:23:54.454Z,38.20
2018-10-12T12:24:54.481Z,38.68
2018-10-12T12:25:54.497Z,38.29
2018-10-12T12:26:54.519Z,38.02
2018-10-12T12:27:54.541Z,36.83
2018-10-12T12:28:54.562Z,38.41
2018-10-12T12:29:54.586Z,36.68
2018-10-12T12:30:54.607Z,36.00
2018-10-12T12:31:54.635Z,35.54
2018-10-12T12:32:54.653Z,34.86
2018-10-12T12:33:54.678Z,35.18
2018-10-12T12:34:54.800Z,38.20
2018-10-12T12:35:55.142Z,40.62
2018-10-12T12:36:54.742Z,40.18
2018-10-12T12:37:54.764Z,37.10
2018-10-12T12:38:54.790Z,37.02
2018-10-12T12:39:54.817Z,36.85
2018-10-12T12:40:54.834Z,36.18
2018-10-12T12:41:54.854Z,35.99
2018-10-12T12:42:54.876Z,33.98
2018-10-12T12:43:54.900Z,34.94
2018-10-12T12:44:54.920Z,34.77
2018-10-12T12:45:54.943Z,33.25
2018-10-12T12:46:54.964Z,32.38
2018-10-12T12:47:55.180Z,32.86
2018-10-12T12:48:55.518Z,33.44
2018-10-12T12:49:55.044Z,34.30
2018-10-12T12:50:55.058Z,32.86
2018-10-12T12:51:55.080Z,32.17
2018-10-12T12:52:55.102Z,34.27